sensor_id;sensor_type;location;lat;lon;timestamp;temperature;humidity
76996;DHT22;65929;49.062;10.338;2022-12-29T00:00:36;6.20;71.60
76996;DHT22;65929;49.062;10.338;2022-12-29T00:01:37;6.20;71.50
76996;DHT22;65929;49.062;10.338;2022-12-29T00:02:38;6.20;71.70
76996;DHT22;65929;49.062;10.338;2022-12-29T00:03:39;6.20;71.80
76996;DHT22;65929;49.062;10.338;2022-12-29T00:04:40;6.20;71.80
76996;DHT22;65929;49.062;10.338;2022-12-29T00:05:41;6.20;71.70
76996;DHT22;65929;49.062;10.338;2022-12-29T00:06:42;6.20;72.00
76996;DHT22;65929;49.062;10.338;2022-12-29T00:07:43;6.20;71.90
76996;DHT22;65929;49.062;10.338;2022-12-29T00:08:44;6.20;71.90
76996;DHT22;65929;49.062;10.338;2022-12-29T00:09:45;6.20;71.90
76996;DHT22;65929;49.062;10.338;2022-12-29T00:10:46;6.20;71.80
76996;DHT22;65929;49.062;10.338;2022-12-29T00:11:47;6.20;71.80
76996;DHT22;65929;49.062;10.338;2022-12-29T00:12:50;6.30;71.80
76996;DHT22;65929;49.062;10.338;2022-12-29T00:14:11;6.30;71.90
76996;DHT22;65929;49.062;10.338;2022-12-29T00:15:31;6.20;72.20
76996;DHT22;65929;49.062;10.338;2022-12-29T00:16:41;6.20;71.90
76996;DHT22;65929;49.062;10.338;2022-12-29T00:17:42;6.20;71.90
76996;DHT22;65929;49.062;10.338;2022-12-29T00:18:43;6.30;71.90
76996;DHT22;65929;49.062;10.338;2022-12-29T00:19:44;6.30;71.80
76996;DHT22;65929;49.062;10.338;2022-12-29T00:21:03;6.30;71.80
76996;DHT22;65929;49.062;10.338;2022-12-29T00:22:23;6.30;71.70
76996;DHT22;65929;49.062;10.338;2022-12-29T00:23:42;6.40;71.60
76996;DHT22;65929;49.062;10.338;2022-12-29T00:25:16;6.40;71.60
76996;DHT22;65929;49.062;10.338;2022-12-29T00:26:35;6.40;71.50
76996;DHT22;65929;49.062;10.338;2022-12-29T00:27:54;6.50;71.40
76996;DHT22;65929;49.062;10.338;2022-12-29T00:29:14;6.50;71.40
76996;DHT22;65929;49.062;10.338;2022-12-29T00:30:51;6.50;71.30
76996;DHT22;65929;49.062;10.338;2022-12-29T00:32:11;6.50;71.20
76996;DHT22;65929;49.062;10.338;2022-12-29T00:33:32;6.50;71.10
76996;DHT22;65929;49.062;10.338;2022-12-29T00:34:51;6.50;71.10
76996;DHT22;65929;49.062;10.338;2022-12-29T00:36:13;6.60;71.00
76996;DHT22;65929;49.062;10.338;2022-12-29T00:37:17;6.60;71.10
76996;DHT22;65929;49.062;10.338;2022-12-29T00:38:18;6.60;70.80
76996;DHT22;65929;49.062;10.338;2022-12-29T00:39:38;6.70;70.60
76996;DHT22;65929;49.062;10.338;2022-12-29T00:40:58;6.70;70.70
76996;DHT22;65929;49.062;10.338;2022-12-29T00:42:18;6.70;70.50
76996;DHT22;65929;49.062;10.338;2022-12-29T00:43:39;6.80;70.50
76996;DHT22;65929;49.062;10.338;2022-12-29T00:44:58;6.80;70.40
76996;DHT22;65929;49.062;10.338;2022-12-29T00:46:01;6.80;70.60
76996;DHT22;65929;49.062;10.338;2022-12-29T00:47:01;6.80;70.50
76996;DHT22;65929;49.062;10.338;2022-12-29T00:48:04;6.80;70.40
76996;DHT22;65929;49.062;10.338;2022-12-29T00:49:07;6.80;70.40
76996;DHT22;65929;49.062;10.338;2022-12-29T00:50:26;6.80;70.30
76996;DHT22;65929;49.062;10.338;2022-12-29T00:51:27;6.80;70.10
76996;DHT22;65929;49.062;10.338;2022-12-29T00:52:28;6.80;70.30
76996;DHT22;65929;49.062;10.338;2022-12-29T00:53:29;6.80;70.40
76996;DHT22;65929;49.062;10.338;2022-12-29T00:54:32;6.80;70.30
76996;DHT22;65929;49.062;10.338;2022-12-29T00:55:36;6.80;70.30
76996;DHT22;65929;49.062;10.338;2022-12-29T00:56:38;6.80;70.50
76996;DHT22;65929;49.062;10.338;2022-12-29T00:57:39;6.80;70.20
76996;DHT22;65929;49.062;10.338;2022-12-29T00:58:40;6.80;70.40
76996;DHT22;65929;49.062;10.338;2022-12-29T00:59:42;6.80;70.30
76996;DHT22;65929;49.062;10.338;2022-12-29T01:00:43;6.80;70.40
76996;DHT22;65929;49.062;10.338;2022-12-29T01:01:46;6.80;70.50
76996;DHT22;65929;49.062;10.338;2022-12-29T01:02:47;6.80;70.70
76996;DHT22;65929;49.062;10.338;2022-12-29T01:03:48;6.80;70.60
76996;DHT22;65929;49.062;10.338;2022-12-29T01:04:49;6.80;70.40
76996;DHT22;65929;49.062;10.338;2022-12-29T01:05:50;6.80;70.50
76996;DHT22;65929;49.062;10.338;2022-12-29T01:06:51;6.80;70.40
76996;DHT22;65929;49.062;10.338;2022-12-29T01:07:52;6.80;70.50
76996;DHT22;65929;49.062;10.338;2022-12-29T01:08:56;6.80;70.40
76996;DHT22;65929;49.062;10.338;2022-12-29T01:10:15;6.80;70.40
76996;DHT22;65929;49.062;10.338;2022-12-29T01:11:16;6.80;70.50
76996;DHT22;65929;49.062;10.338;2022-12-29T01:12:17;6.80;70.70
76996;DHT22;65929;49.062;10.338;2022-12-29T01:13:39;6.80;70.70
76996;DHT22;65929;49.062;10.338;2022-12-29T01:14:41;6.80;70.50
76996;DHT22;65929;49.062;10.338;2022-12-29T01:15:49;6.80;70.50
76996;DHT22;65929;49.062;10.338;2022-12-29T01:16:55;6.90;70.50
76996;DHT22;65929;49.062;10.338;2022-12-29T01:17:56;6.90;70.50
76996;DHT22;65929;49.062;10.338;2022-12-29T01:18:59;6.90;70.40
76996;DHT22;65929;49.062;10.338;2022-12-29T01:20:00;6.90;70.50
76996;DHT22;65929;49.062;10.338;2022-12-29T01:21:03;6.90;70.50
76996;DHT22;65929;49.062;10.338;2022-12-29T01:22:04;6.90;70.30
76996;DHT22;65929;49.062;10.338;2022-12-29T01:23:05;6.90;70.60
76996;DHT22;65929;49.062;10.338;2022-12-29T01:24:06;6.90;70.40
76996;DHT22;65929;49.062;10.338;2022-12-29T01:25:07;6.90;70.40
76996;DHT22;65929;49.062;10.338;2022-12-29T01:26:09;6.90;70.40
76996;DHT22;65929;49.062;10.338;2022-12-29T01:27:11;6.90;70.50
76996;DHT22;65929;49.062;10.338;2022-12-29T01:28:11;6.90;70.40
76996;DHT22;65929;49.062;10.338;2022-12-29T01:29:13;6.90;70.40
76996;DHT22;65929;49.062;10.338;2022-12-29T01:30:14;6.90;70.50
76996;DHT22;65929;49.062;10.338;2022-12-29T01:31:15;6.90;70.50
76996;DHT22;65929;49.062;10.338;2022-12-29T01:32:23;6.90;70.50
76996;DHT22;65929;49.062;10.338;2022-12-29T01:33:24;6.90;70.30
76996;DHT22;65929;49.062;10.338;2022-12-29T01:34:25;6.90;70.70
76996;DHT22;65929;49.062;10.338;2022-12-29T01:35:29;6.90;70.30
76996;DHT22;65929;49.062;10.338;2022-12-29T01:36:30;6.90;70.20
76996;DHT22;65929;49.062;10.338;2022-12-29T01:37:31;6.90;70.30
76996;DHT22;65929;49.062;10.338;2022-12-29T01:38:32;6.90;70.20
76996;DHT22;65929;49.062;10.338;2022-12-29T01:39:36;6.90;70.30
76996;DHT22;65929;49.062;10.338;2022-12-29T01:40:43;6.90;70.30
76996;DHT22;65929;49.062;10.338;2022-12-29T01:41:44;6.90;70.30
76996;DHT22;65929;49.062;10.338;2022-12-29T01:42:45;6.90;70.20
76996;DHT22;65929;49.062;10.338;2022-12-29T01:43:48;6.90;70.30
76996;DHT22;65929;49.062;10.338;2022-12-29T01:44:52;6.90;70.30
76996;DHT22;65929;49.062;10.338;2022-12-29T01:46:16;6.90;70.50
76996;DHT22;65929;49.062;10.338;2022-12-29T01:47:32;6.90;70.50
76996;DHT22;65929;49.062;10.338;2022-12-29T01:48:34;6.90;70.50
76996;DHT22;65929;49.062;10.338;2022-12-29T01:49:38;6.90;70.60
76996;DHT22;65929;49.062;10.338;2022-12-29T01:50:41;6.90;70.50
76996;DHT22;65929;49.062;10.338;2022-12-29T01:51:46;6.90;70.40
76996;DHT22;65929;49.062;10.338;2022-12-29T01:52:56;6.90;70.50
76996;DHT22;65929;49.062;10.338;2022-12-29T01:54:08;6.90;70.50
76996;DHT22;65929;49.062;10.338;2022-12-29T01:55:11;6.90;70.40
76996;DHT22;65929;49.062;10.338;2022-12-29T01:56:15;6.90;70.50
76996;DHT22;65929;49.062;10.338;2022-12-29T01:57:21;6.90;70.40
76996;DHT22;65929;49.062;10.338;2022-12-29T01:58:26;7.00;70.50
76996;DHT22;65929;49.062;10.338;2022-12-29T01:59:30;7.00;70.40
76996;DHT22;65929;49.062;10.338;2022-12-29T02:00:47;7.00;70.10
76996;DHT22;65929;49.062;10.338;2022-12-29T02:01:49;7.00;70.30
76996;DHT22;65929;49.062;10.338;2022-12-29T02:02:52;7.00;70.30
76996;DHT22;65929;49.062;10.338;2022-12-29T02:03:54;7.00;70.30
76996;DHT22;65929;49.062;10.338;2022-12-29T02:04:58;7.00;69.90
76996;DHT22;65929;49.062;10.338;2022-12-29T02:06:04;7.00;70.00
76996;DHT22;65929;49.062;10.338;2022-12-29T02:07:11;7.00;69.80
76996;DHT22;65929;49.062;10.338;2022-12-29T02:08:20;7.00;69.90
76996;DHT22;65929;49.062;10.338;2022-12-29T02:09:23;7.00;70.00
76996;DHT22;65929;49.062;10.338;2022-12-29T02:10:26;7.00;70.00
76996;DHT22;65929;49.062;10.338;2022-12-29T02:11:29;7.00;69.90
76996;DHT22;65929;49.062;10.338;2022-12-29T02:12:30;7.00;70.10
76996;DHT22;65929;49.062;10.338;2022-12-29T02:13:31;7.00;70.20
76996;DHT22;65929;49.062;10.338;2022-12-29T02:14:32;7.00;70.00
76996;DHT22;65929;49.062;10.338;2022-12-29T02:15:42;7.00;70.10
76996;DHT22;65929;49.062;10.338;2022-12-29T02:16:58;7.00;70.00
76996;DHT22;65929;49.062;10.338;2022-12-29T02:18:18;7.00;70.10
76996;DHT22;65929;49.062;10.338;2022-12-29T02:21:47;7.00;69.80
76996;DHT22;65929;49.062;10.338;2022-12-29T02:23:03;7.10;69.50
76996;DHT22;65929;49.062;10.338;2022-12-29T02:26:12;7.10;69.50
76996;DHT22;65929;49.062;10.338;2022-12-29T02:29:03;7.00;69.50
76996;DHT22;65929;49.062;10.338;2022-12-29T02:30:16;7.00;69.40
76996;DHT22;65929;49.062;10.338;2022-12-29T02:31:25;7.00;69.50
76996;DHT22;65929;49.062;10.338;2022-12-29T02:32:36;7.00;69.30
76996;DHT22;65929;49.062;10.338;2022-12-29T02:33:48;7.00;69.60
76996;DHT22;65929;49.062;10.338;2022-12-29T02:34:58;7.00;69.60
76996;DHT22;65929;49.062;10.338;2022-12-29T02:36:09;7.00;69.70
76996;DHT22;65929;49.062;10.338;2022-12-29T02:37:17;7.00;69.70
76996;DHT22;65929;49.062;10.338;2022-12-29T02:38:28;7.00;69.70
76996;DHT22;65929;49.062;10.338;2022-12-29T02:39:38;7.00;69.90
76996;DHT22;65929;49.062;10.338;2022-12-29T02:40:46;7.00;69.80
76996;DHT22;65929;49.062;10.338;2022-12-29T02:41:56;7.00;69.50
76996;DHT22;65929;49.062;10.338;2022-12-29T02:43:03;7.00;69.60
76996;DHT22;65929;49.062;10.338;2022-12-29T02:44:12;7.00;69.70
76996;DHT22;65929;49.062;10.338;2022-12-29T02:45:20;7.00;69.60
76996;DHT22;65929;49.062;10.338;2022-12-29T02:46:31;7.00;69.80
76996;DHT22;65929;49.062;10.338;2022-12-29T02:47:38;7.00;69.80
76996;DHT22;65929;49.062;10.338;2022-12-29T02:48:45;7.00;69.90
76996;DHT22;65929;49.062;10.338;2022-12-29T02:49:48;7.00;69.80
76996;DHT22;65929;49.062;10.338;2022-12-29T02:50:57;7.00;69.80
76996;DHT22;65929;49.062;10.338;2022-12-29T02:52:02;7.00;69.70
76996;DHT22;65929;49.062;10.338;2022-12-29T02:53:06;7.00;69.90
76996;DHT22;65929;49.062;10.338;2022-12-29T02:54:08;7.00;70.00
76996;DHT22;65929;49.062;10.338;2022-12-29T02:55:27;7.00;69.70
76996;DHT22;65929;49.062;10.338;2022-12-29T02:56:28;7.00;69.60
76996;DHT22;65929;49.062;10.338;2022-12-29T02:57:32;7.00;69.40
76996;DHT22;65929;49.062;10.338;2022-12-29T02:58:33;7.00;69.50
76996;DHT22;65929;49.062;10.338;2022-12-29T02:59:34;7.00;69.30
76996;DHT22;65929;49.062;10.338;2022-12-29T03:00:38;7.00;69.40
76996;DHT22;65929;49.062;10.338;2022-12-29T03:01:59;7.00;69.40
76996;DHT22;65929;49.062;10.338;2022-12-29T03:03:27;7.00;69.30
76996;DHT22;65929;49.062;10.338;2022-12-29T03:04:34;7.00;69.00
76996;DHT22;65929;49.062;10.338;2022-12-29T03:05:57;7.00;69.00
76996;DHT22;65929;49.062;10.338;2022-12-29T03:07:09;7.00;69.00
76996;DHT22;65929;49.062;10.338;2022-12-29T03:08:14;7.00;68.90
76996;DHT22;65929;49.062;10.338;2022-12-29T03:09:26;7.00;68.90
76996;DHT22;65929;49.062;10.338;2022-12-29T03:10:37;7.00;69.10
76996;DHT22;65929;49.062;10.338;2022-12-29T03:11:45;7.00;69.10
76996;DHT22;65929;49.062;10.338;2022-12-29T03:13:14;7.00;68.90
76996;DHT22;65929;49.062;10.338;2022-12-29T03:14:46;7.00;69.00
76996;DHT22;65929;49.062;10.338;2022-12-29T03:16:13;7.00;68.70
76996;DHT22;65929;49.062;10.338;2022-12-29T03:17:23;7.10;69.10
76996;DHT22;65929;49.062;10.338;2022-12-29T03:19:49;7.00;69.20
76996;DHT22;65929;49.062;10.338;2022-12-29T03:20:54;7.00;69.20
76996;DHT22;65929;49.062;10.338;2022-12-29T03:21:59;7.00;69.40
76996;DHT22;65929;49.062;10.338;2022-12-29T03:23:21;7.00;69.40
76996;DHT22;65929;49.062;10.338;2022-12-29T03:24:27;7.00;69.20
76996;DHT22;65929;49.062;10.338;2022-12-29T03:25:30;7.00;69.30
76996;DHT22;65929;49.062;10.338;2022-12-29T03:26:32;7.00;69.30
76996;DHT22;65929;49.062;10.338;2022-12-29T03:27:37;7.00;69.00
76996;DHT22;65929;49.062;10.338;2022-12-29T03:28:44;7.00;68.90
76996;DHT22;65929;49.062;10.338;2022-12-29T03:29:48;7.00;68.70
76996;DHT22;65929;49.062;10.338;2022-12-29T03:30:54;7.00;68.80
76996;DHT22;65929;49.062;10.338;2022-12-29T03:31:55;7.00;68.90
76996;DHT22;65929;49.062;10.338;2022-12-29T03:33:00;7.00;69.00
76996;DHT22;65929;49.062;10.338;2022-12-29T03:34:03;7.00;69.00
76996;DHT22;65929;49.062;10.338;2022-12-29T03:35:06;7.00;68.90
76996;DHT22;65929;49.062;10.338;2022-12-29T03:36:13;7.00;68.90
76996;DHT22;65929;49.062;10.338;2022-12-29T03:37:19;7.00;69.00
76996;DHT22;65929;49.062;10.338;2022-12-29T03:38:25;7.00;68.90
76996;DHT22;65929;49.062;10.338;2022-12-29T03:39:28;7.00;69.00
76996;DHT22;65929;49.062;10.338;2022-12-29T03:40:31;7.00;69.20
76996;DHT22;65929;49.062;10.338;2022-12-29T03:41:33;7.00;69.20
76996;DHT22;65929;49.062;10.338;2022-12-29T03:42:36;7.00;69.40
76996;DHT22;65929;49.062;10.338;2022-12-29T03:43:37;6.90;68.70
76996;DHT22;65929;49.062;10.338;2022-12-29T03:44:40;7.00;68.70
76996;DHT22;65929;49.062;10.338;2022-12-29T03:45:41;7.00;68.70
76996;DHT22;65929;49.062;10.338;2022-12-29T03:46:42;7.00;68.90
76996;DHT22;65929;49.062;10.338;2022-12-29T03:47:43;7.00;68.70
76996;DHT22;65929;49.062;10.338;2022-12-29T03:48:45;7.00;68.70
76996;DHT22;65929;49.062;10.338;2022-12-29T03:49:47;7.00;68.50
76996;DHT22;65929;49.062;10.338;2022-12-29T03:50:48;7.00;68.50
76996;DHT22;65929;49.062;10.338;2022-12-29T03:51:49;7.00;68.70
76996;DHT22;65929;49.062;10.338;2022-12-29T03:52:50;7.00;68.70
76996;DHT22;65929;49.062;10.338;2022-12-29T03:53:50;7.00;68.90
76996;DHT22;65929;49.062;10.338;2022-12-29T03:54:52;7.00;68.90
76996;DHT22;65929;49.062;10.338;2022-12-29T03:55:53;7.00;68.80
76996;DHT22;65929;49.062;10.338;2022-12-29T03:56:54;7.00;68.70
76996;DHT22;65929;49.062;10.338;2022-12-29T03:57:54;7.00;69.00
76996;DHT22;65929;49.062;10.338;2022-12-29T03:58:55;7.00;68.70
76996;DHT22;65929;49.062;10.338;2022-12-29T03:59:56;7.00;68.80
76996;DHT22;65929;49.062;10.338;2022-12-29T04:00:57;7.00;68.70
76996;DHT22;65929;49.062;10.338;2022-12-29T04:01:58;7.00;68.40
76996;DHT22;65929;49.062;10.338;2022-12-29T04:02:59;7.00;68.70
76996;DHT22;65929;49.062;10.338;2022-12-29T04:04:01;7.00;68.90
76996;DHT22;65929;49.062;10.338;2022-12-29T04:05:03;7.00;68.60
76996;DHT22;65929;49.062;10.338;2022-12-29T04:06:04;7.00;68.50
76996;DHT22;65929;49.062;10.338;2022-12-29T04:07:05;7.00;68.50
76996;DHT22;65929;49.062;10.338;2022-12-29T04:08:06;7.00;68.50
76996;DHT22;65929;49.062;10.338;2022-12-29T04:09:09;7.00;68.50
76996;DHT22;65929;49.062;10.338;2022-12-29T04:10:09;7.00;68.50
76996;DHT22;65929;49.062;10.338;2022-12-29T04:11:10;7.00;68.50
76996;DHT22;65929;49.062;10.338;2022-12-29T04:12:11;7.00;68.40
76996;DHT22;65929;49.062;10.338;2022-12-29T04:13:12;7.00;68.40
76996;DHT22;65929;49.062;10.338;2022-12-29T04:14:22;7.00;68.50
76996;DHT22;65929;49.062;10.338;2022-12-29T04:15:23;7.00;68.40
76996;DHT22;65929;49.062;10.338;2022-12-29T04:16:25;7.00;68.20
76996;DHT22;65929;49.062;10.338;2022-12-29T04:17:26;7.00;68.30
76996;DHT22;65929;49.062;10.338;2022-12-29T04:18:27;7.00;68.60
76996;DHT22;65929;49.062;10.338;2022-12-29T04:19:29;6.90;68.60
76996;DHT22;65929;49.062;10.338;2022-12-29T04:20:30;6.90;68.40
76996;DHT22;65929;49.062;10.338;2022-12-29T04:21:50;6.90;68.60
76996;DHT22;65929;49.062;10.338;2022-12-29T04:22:58;6.90;68.40
76996;DHT22;65929;49.062;10.338;2022-12-29T04:23:59;6.90;68.50
76996;DHT22;65929;49.062;10.338;2022-12-29T04:25:00;7.00;68.40
76996;DHT22;65929;49.062;10.338;2022-12-29T04:26:01;6.90;68.60
76996;DHT22;65929;49.062;10.338;2022-12-29T04:27:02;6.90;68.70
76996;DHT22;65929;49.062;10.338;2022-12-29T04:28:03;6.90;68.70
76996;DHT22;65929;49.062;10.338;2022-12-29T04:29:04;6.90;68.40
76996;DHT22;65929;49.062;10.338;2022-12-29T04:30:06;7.00;68.60
76996;DHT22;65929;49.062;10.338;2022-12-29T04:31:07;7.00;68.40
76996;DHT22;65929;49.062;10.338;2022-12-29T04:32:08;7.00;68.40
76996;DHT22;65929;49.062;10.338;2022-12-29T04:33:09;6.90;68.40
76996;DHT22;65929;49.062;10.338;2022-12-29T04:34:10;6.90;68.60
76996;DHT22;65929;49.062;10.338;2022-12-29T04:35:12;7.00;68.60
76996;DHT22;65929;49.062;10.338;2022-12-29T04:36:13;6.90;68.70
76996;DHT22;65929;49.062;10.338;2022-12-29T04:37:14;6.90;68.80
76996;DHT22;65929;49.062;10.338;2022-12-29T04:38:15;6.90;68.60
76996;DHT22;65929;49.062;10.338;2022-12-29T04:39:16;6.90;68.80
76996;DHT22;65929;49.062;10.338;2022-12-29T04:40:17;6.90;68.80
76996;DHT22;65929;49.062;10.338;2022-12-29T04:41:18;6.80;69.00
76996;DHT22;65929;49.062;10.338;2022-12-29T04:42:19;6.80;68.90
76996;DHT22;65929;49.062;10.338;2022-12-29T04:43:20;6.80;69.00
76996;DHT22;65929;49.062;10.338;2022-12-29T04:44:22;6.70;69.30
76996;DHT22;65929;49.062;10.338;2022-12-29T04:45:23;6.70;69.50
76996;DHT22;65929;49.062;10.338;2022-12-29T04:46:24;6.60;69.60
76996;DHT22;65929;49.062;10.338;2022-12-29T04:47:25;6.60;69.80
76996;DHT22;65929;49.062;10.338;2022-12-29T04:48:26;6.50;69.80
76996;DHT22;65929;49.062;10.338;2022-12-29T04:49:27;6.50;69.90
76996;DHT22;65929;49.062;10.338;2022-12-29T04:50:29;6.50;70.00
76996;DHT22;65929;49.062;10.338;2022-12-29T04:51:30;6.40;70.10
76996;DHT22;65929;49.062;10.338;2022-12-29T04:52:31;6.40;70.10
76996;DHT22;65929;49.062;10.338;2022-12-29T04:53:32;6.40;70.20
76996;DHT22;65929;49.062;10.338;2022-12-29T04:54:33;6.40;70.20
76996;DHT22;65929;49.062;10.338;2022-12-29T04:55:34;6.30;70.30
76996;DHT22;65929;49.062;10.338;2022-12-29T04:56:35;6.30;70.10
76996;DHT22;65929;49.062;10.338;2022-12-29T04:57:36;6.40;70.30
76996;DHT22;65929;49.062;10.338;2022-12-29T04:58:37;6.30;70.40
76996;DHT22;65929;49.062;10.338;2022-12-29T04:59:38;6.30;70.50
76996;DHT22;65929;49.062;10.338;2022-12-29T05:00:42;6.30;70.50
76996;DHT22;65929;49.062;10.338;2022-12-29T05:01:43;6.30;70.70
76996;DHT22;65929;49.062;10.338;2022-12-29T05:02:44;6.30;70.60
76996;DHT22;65929;49.062;10.338;2022-12-29T05:03:45;6.30;70.50
76996;DHT22;65929;49.062;10.338;2022-12-29T05:04:46;6.30;70.50
76996;DHT22;65929;49.062;10.338;2022-12-29T05:05:48;6.30;70.50
76996;DHT22;65929;49.062;10.338;2022-12-29T05:06:49;6.30;70.60
76996;DHT22;65929;49.062;10.338;2022-12-29T05:07:50;6.30;70.50
76996;DHT22;65929;49.062;10.338;2022-12-29T05:08:51;6.30;70.50
76996;DHT22;65929;49.062;10.338;2022-12-29T05:09:52;6.40;70.50
76996;DHT22;65929;49.062;10.338;2022-12-29T05:10:53;6.40;70.40
76996;DHT22;65929;49.062;10.338;2022-12-29T05:11:54;6.40;70.50
76996;DHT22;65929;49.062;10.338;2022-12-29T05:12:55;6.40;70.50
76996;DHT22;65929;49.062;10.338;2022-12-29T05:13:56;6.40;70.50
76996;DHT22;65929;49.062;10.338;2022-12-29T05:14:57;6.40;70.50
76996;DHT22;65929;49.062;10.338;2022-12-29T05:15:58;6.40;70.50
76996;DHT22;65929;49.062;10.338;2022-12-29T05:16:59;6.40;70.30
76996;DHT22;65929;49.062;10.338;2022-12-29T05:18:00;6.40;70.50
76996;DHT22;65929;49.062;10.338;2022-12-29T05:19:01;6.40;70.30
76996;DHT22;65929;49.062;10.338;2022-12-29T05:20:03;6.40;70.40
76996;DHT22;65929;49.062;10.338;2022-12-29T05:21:05;6.40;70.30
76996;DHT22;65929;49.062;10.338;2022-12-29T05:22:06;6.40;70.40
76996;DHT22;65929;49.062;10.338;2022-12-29T05:23:07;6.30;70.30
76996;DHT22;65929;49.062;10.338;2022-12-29T05:24:08;6.30;70.40
76996;DHT22;65929;49.062;10.338;2022-12-29T05:25:10;6.30;70.70
76996;DHT22;65929;49.062;10.338;2022-12-29T05:26:11;6.30;70.50
76996;DHT22;65929;49.062;10.338;2022-12-29T05:27:12;6.30;70.40
76996;DHT22;65929;49.062;10.338;2022-12-29T05:28:13;6.30;70.30
76996;DHT22;65929;49.062;10.338;2022-12-29T05:29:14;6.30;70.70
76996;DHT22;65929;49.062;10.338;2022-12-29T05:30:15;6.30;70.50
76996;DHT22;65929;49.062;10.338;2022-12-29T05:31:22;6.30;70.40
76996;DHT22;65929;49.062;10.338;2022-12-29T05:32:23;6.30;70.20
76996;DHT22;65929;49.062;10.338;2022-12-29T05:33:24;6.30;70.30
76996;DHT22;65929;49.062;10.338;2022-12-29T05:34:25;6.20;70.40
76996;DHT22;65929;49.062;10.338;2022-12-29T05:35:25;6.20;70.40
76996;DHT22;65929;49.062;10.338;2022-12-29T05:36:28;6.20;70.40
76996;DHT22;65929;49.062;10.338;2022-12-29T05:37:29;6.20;70.60
76996;DHT22;65929;49.062;10.338;2022-12-29T05:38:30;6.10;70.60
76996;DHT22;65929;49.062;10.338;2022-12-29T05:39:31;6.10;70.80
76996;DHT22;65929;49.062;10.338;2022-12-29T05:40:32;6.00;70.90
76996;DHT22;65929;49.062;10.338;2022-12-29T05:41:33;6.00;71.10
76996;DHT22;65929;49.062;10.338;2022-12-29T05:42:34;6.00;70.90
76996;DHT22;65929;49.062;10.338;2022-12-29T05:43:35;6.00;70.90
76996;DHT22;65929;49.062;10.338;2022-12-29T05:44:38;6.00;70.80
76996;DHT22;65929;49.062;10.338;2022-12-29T05:45:39;5.90;70.90
76996;DHT22;65929;49.062;10.338;2022-12-29T05:46:40;5.90;70.80
76996;DHT22;65929;49.062;10.338;2022-12-29T05:47:41;5.90;70.90
76996;DHT22;65929;49.062;10.338;2022-12-29T05:48:42;5.90;71.00
76996;DHT22;65929;49.062;10.338;2022-12-29T05:49:43;5.90;71.00
76996;DHT22;65929;49.062;10.338;2022-12-29T05:50:47;5.90;71.10
76996;DHT22;65929;49.062;10.338;2022-12-29T05:51:49;5.90;71.10
76996;DHT22;65929;49.062;10.338;2022-12-29T05:52:50;5.80;71.00
76996;DHT22;65929;49.062;10.338;2022-12-29T05:53:51;5.80;70.90
76996;DHT22;65929;49.062;10.338;2022-12-29T05:54:52;5.80;71.10
76996;DHT22;65929;49.062;10.338;2022-12-29T05:55:53;5.80;71.00
76996;DHT22;65929;49.062;10.338;2022-12-29T05:56:56;5.80;71.00
76996;DHT22;65929;49.062;10.338;2022-12-29T05:57:58;5.70;71.10
76996;DHT22;65929;49.062;10.338;2022-12-29T05:59:00;5.70;71.20
76996;DHT22;65929;49.062;10.338;2022-12-29T06:00:02;5.70;71.40
76996;DHT22;65929;49.062;10.338;2022-12-29T06:01:03;5.60;71.60
76996;DHT22;65929;49.062;10.338;2022-12-29T06:02:04;5.60;71.70
76996;DHT22;65929;49.062;10.338;2022-12-29T06:03:05;5.60;71.70
76996;DHT22;65929;49.062;10.338;2022-12-29T06:04:12;5.50;71.80
76996;DHT22;65929;49.062;10.338;2022-12-29T06:05:14;5.50;71.90
76996;DHT22;65929;49.062;10.338;2022-12-29T06:06:15;5.50;71.80
76996;DHT22;65929;49.062;10.338;2022-12-29T06:07:17;5.50;71.90
76996;DHT22;65929;49.062;10.338;2022-12-29T06:08:18;5.50;71.90
76996;DHT22;65929;49.062;10.338;2022-12-29T06:09:19;5.50;72.00
76996;DHT22;65929;49.062;10.338;2022-12-29T06:10:20;5.50;72.00
76996;DHT22;65929;49.062;10.338;2022-12-29T06:11:21;5.50;71.90
76996;DHT22;65929;49.062;10.338;2022-12-29T06:12:22;5.50;72.10
76996;DHT22;65929;49.062;10.338;2022-12-29T06:13:23;5.50;72.10
76996;DHT22;65929;49.062;10.338;2022-12-29T06:14:25;5.50;72.10
76996;DHT22;65929;49.062;10.338;2022-12-29T06:15:26;5.50;72.00
76996;DHT22;65929;49.062;10.338;2022-12-29T06:16:27;5.50;72.00
76996;DHT22;65929;49.062;10.338;2022-12-29T06:17:28;5.40;72.10
76996;DHT22;65929;49.062;10.338;2022-12-29T06:18:29;5.30;72.20
76996;DHT22;65929;49.062;10.338;2022-12-29T06:19:30;5.30;72.20
76996;DHT22;65929;49.062;10.338;2022-12-29T06:20:31;5.30;72.30
76996;DHT22;65929;49.062;10.338;2022-12-29T06:21:32;5.30;72.40
76996;DHT22;65929;49.062;10.338;2022-12-29T06:22:34;5.30;72.50
76996;DHT22;65929;49.062;10.338;2022-12-29T06:23:35;5.30;72.50
76996;DHT22;65929;49.062;10.338;2022-12-29T06:24:36;5.20;72.60
76996;DHT22;65929;49.062;10.338;2022-12-29T06:25:37;5.10;72.70
76996;DHT22;65929;49.062;10.338;2022-12-29T06:26:38;5.10;72.70
76996;DHT22;65929;49.062;10.338;2022-12-29T06:27:40;5.10;72.70
76996;DHT22;65929;49.062;10.338;2022-12-29T06:28:41;5.10;72.60
76996;DHT22;65929;49.062;10.338;2022-12-29T06:29:42;5.10;72.50
76996;DHT22;65929;49.062;10.338;2022-12-29T06:30:43;5.10;72.40
76996;DHT22;65929;49.062;10.338;2022-12-29T06:31:45;5.10;72.50
76996;DHT22;65929;49.062;10.338;2022-12-29T06:32:46;5.10;72.40
76996;DHT22;65929;49.062;10.338;2022-12-29T06:33:47;5.10;72.50
76996;DHT22;65929;49.062;10.338;2022-12-29T06:34:48;5.10;72.40
76996;DHT22;65929;49.062;10.338;2022-12-29T06:35:49;5.10;72.40
76996;DHT22;65929;49.062;10.338;2022-12-29T06:36:50;5.10;72.30
76996;DHT22;65929;49.062;10.338;2022-12-29T06:37:53;5.10;72.20
76996;DHT22;65929;49.062;10.338;2022-12-29T06:38:53;5.20;72.00
76996;DHT22;65929;49.062;10.338;2022-12-29T06:39:55;5.30;72.00
76996;DHT22;65929;49.062;10.338;2022-12-29T06:40:56;5.30;71.90
76996;DHT22;65929;49.062;10.338;2022-12-29T06:41:57;5.30;71.80
76996;DHT22;65929;49.062;10.338;2022-12-29T06:42:58;5.30;71.80
76996;DHT22;65929;49.062;10.338;2022-12-29T06:43:59;5.30;71.90
76996;DHT22;65929;49.062;10.338;2022-12-29T06:44:59;5.30;71.60
76996;DHT22;65929;49.062;10.338;2022-12-29T06:46:01;5.40;71.70
76996;DHT22;65929;49.062;10.338;2022-12-29T06:47:02;5.40;71.60
76996;DHT22;65929;49.062;10.338;2022-12-29T06:48:03;5.40;71.60
76996;DHT22;65929;49.062;10.338;2022-12-29T06:49:04;5.50;71.50
76996;DHT22;65929;49.062;10.338;2022-12-29T06:50:06;5.50;71.40
76996;DHT22;65929;49.062;10.338;2022-12-29T06:51:07;5.50;71.30
76996;DHT22;65929;49.062;10.338;2022-12-29T06:52:08;5.50;71.20
76996;DHT22;65929;49.062;10.338;2022-12-29T06:53:10;5.50;71.20
76996;DHT22;65929;49.062;10.338;2022-12-29T06:54:12;5.50;71.20